Time;durP1;ratioP1;P1;durP2;ratioP2;P2;SDS_P1;SDS_P2;PMS_P1;PMS_P2;Temp;Humidity;BMP_temperature;BMP_pressure;BME280_temperature;BME280_humidity;BME280_pressure;Samples;Min_cycle;Max_cycle;Signal;HPM_P1;HPM_P2
2021/05/21 00:02:22;;;;;;;4.30;2.05;;;9.90;99.90;;;;;;5034747;28;20104;-80
2021/05/21 00:04:48;;;;;;;2.53;2.05;;;10.00;99.90;;;;;;5032974;28;20034;-80
2021/05/21 00:07:14;;;;;;;2.30;1.90;;;10.00;99.90;;;;;;5034699;28;20059;-80
2021/05/21 00:09:39;;;;;;;3.45;2.20;;;10.00;99.90;;;;;;5036145;28;20030;-80
2021/05/21 00:12:05;;;;;;;2.70;2.03;;;10.00;99.90;;;;;;5033881;28;20108;-80
2021/05/21 00:14:31;;;;;;;3.05;2.45;;;10.00;99.90;;;;;;5035479;28;20059;-80
2021/05/21 00:16:57;;;;;;;2.33;2.13;;;10.00;99.90;;;;;;5028872;28;20036;-80
2021/05/21 00:19:22;;;;;;;2.10;1.90;;;10.00;99.90;;;;;;5034119;28;20045;-80
2021/05/21 00:21:48;;;;;;;2.45;1.90;;;10.00;99.90;;;;;;5016367;28;20034;-80
2021/05/21 00:24:14;;;;;;;1.77;1.67;;;10.00;99.90;;;;;;5033943;28;20125;-79
2021/05/21 00:26:40;;;;;;;2.30;1.80;;;10.00;99.90;;;;;;5033655;28;20493;-80
2021/05/21 00:29:06;;;;;;;1.70;1.60;;;10.00;99.90;;;;;;5035236;28;20095;-80
2021/05/21 00:31:32;;;;;;;1.45;1.35;;;10.00;99.90;;;;;;5034863;28;20040;-81
2021/05/21 00:33:59;;;;;;;2.55;1.85;;;10.00;99.90;;;;;;5035863;28;20033;-80
2021/05/21 00:36:24;;;;;;;1.60;1.50;;;9.80;99.90;;;;;;5017707;28;20079;-80
2021/05/21 00:38:50;;;;;;;1.67;1.23;;;9.70;99.90;;;;;;5035257;28;20482;-81
2021/05/21 00:41:19;;;;;;;1.77;1.50;;;9.70;99.90;;;;;;5036624;28;20661;-80
2021/05/21 00:43:47;;;;;;;1.70;1.60;;;9.60;99.90;;;;;;5035379;28;20029;-80
2021/05/21 00:46:13;;;;;;;1.30;1.20;;;9.60;99.90;;;;;;5033782;28;20045;-81
2021/05/21 00:48:39;;;;;;;1.58;1.40;;;9.60;99.90;;;;;;5035411;28;20450;-80
2021/05/21 00:51:04;;;;;;;2.65;1.27;;;9.60;99.90;;;;;;5035073;28;20040;-80
2021/05/21 00:53:31;;;;;;;1.85;1.60;;;9.60;99.90;;;;;;5017617;28;20036;-80
2021/05/21 00:55:59;;;;;;;1.27;1.17;;;9.60;99.90;;;;;;5034933;28;20029;-80
2021/05/21 00:58:25;;;;;;;1.63;0.93;;;9.50;99.90;;;;;;5034612;28;20033;-80
2021/05/21 01:00:52;;;;;;;1.23;1.13;;;9.50;99.90;;;;;;5028985;28;20026;-80
2021/05/21 01:03:19;;;;;;;1.38;0.98;;;9.50;99.90;;;;;;5032320;28;20045;-81
2021/05/21 01:05:44;;;;;;;1.20;1.10;;;9.50;99.90;;;;;;5035121;28;20057;-79
2021/05/21 01:08:10;;;;;;;1.27;1.17;;;9.50;99.90;;;;;;5034837;28;20025;-80
2021/05/21 01:10:36;;;;;;;1.45;1.35;;;9.50;99.90;;;;;;5035513;28;20036;-81
2021/05/21 01:13:02;;;;;;;1.25;1.15;;;9.40;99.90;;;;;;5030653;28;20025;-80
2021/05/21 01:15:27;;;;;;;1.45;1.35;;;9.30;99.90;;;;;;5034111;28;20049;-80
2021/05/21 01:17:53;;;;;;;1.40;1.25;;;9.30;99.90;;;;;;5035670;28;20135;-81
2021/05/21 01:20:19;;;;;;;1.60;1.30;;;9.20;99.90;;;;;;5033063;28;20120;-80
2021/05/21 01:22:44;;;;;;;1.30;1.20;;;9.20;99.90;;;;;;5030634;28;20084;-79
2021/05/21 01:25:11;;;;;;;1.00;1.00;;;9.10;99.90;;;;;;5024984;28;20037;-80
2021/05/21 01:27:37;;;;;;;1.55;1.20;;;9.10;99.90;;;;;;5036006;28;20099;-81
2021/05/21 01:30:07;;;;;;;1.40;1.08;;;9.10;99.90;;;;;;5036073;28;20049;-81
2021/05/21 01:32:33;;;;;;;1.30;1.20;;;9.00;99.90;;;;;;5029025;28;20030;-81
2021/05/21 01:34:59;;;;;;;1.15;1.13;;;9.00;99.90;;;;;;5033845;28;20076;-80
2021/05/21 01:37:25;;;;;;;1.55;1.10;;;8.90;99.90;;;;;;5036266;28;20036;-80
2021/05/21 01:39:51;;;;;;;1.08;1.08;;;8.90;99.90;;;;;;5034611;28;20558;-79
2021/05/21 01:42:18;;;;;;;1.08;1.05;;;8.90;99.90;;;;;;5034081;28;20501;-80
2021/05/21 01:44:44;;;;;;;2.00;1.33;;;8.90;99.90;;;;;;5027944;28;20040;-80
2021/05/21 01:47:11;;;;;;;1.20;1.10;;;8.80;99.90;;;;;;5034742;28;20040;-79
2021/05/21 01:49:38;;;;;;;1.15;1.00;;;8.80;99.90;;;;;;5033989;28;20397;-81
2021/05/21 01:52:04;;;;;;;1.52;1.38;;;8.70;99.90;;;;;;5032868;28;20060;-79
2021/05/21 01:54:30;;;;;;;1.33;1.17;;;8.70;99.90;;;;;;5033385;28;20533;-81
2021/05/21 01:56:57;;;;;;;3.60;1.63;;;8.60;99.90;;;;;;5029959;28;20500;-79
2021/05/21 01:59:24;;;;;;;1.67;1.40;;;8.60;99.90;;;;;;5033367;28;20056;-80
2021/05/21 02:01:50;;;;;;;2.08;1.40;;;8.60;99.90;;;;;;5035616;28;20025;-80
2021/05/21 02:04:30;;;;;;;1.73;1.63;;;8.60;99.90;;;;;;5013553;28;20179;-79
2021/05/21 02:06:56;;;;;;;2.60;1.40;;;8.50;99.90;;;;;;5013962;28;20038;-81
2021/05/21 02:09:22;;;;;;;1.38;1.23;;;8.50;99.90;;;;;;5029129;28;20156;-80
2021/05/21 02:11:47;;;;;;;1.52;1.10;;;8.40;99.90;;;;;;4991226;28;20041;-80
2021/05/21 02:14:14;;;;;;;1.42;1.33;;;8.30;99.90;;;;;;5033613;28;20030;-80
2021/05/21 02:16:40;;;;;;;1.58;1.27;;;8.30;99.90;;;;;;5034375;28;20093;-81
2021/05/21 02:19:07;;;;;;;1.50;1.35;;;8.40;99.90;;;;;;5033986;28;20041;-80
2021/05/21 02:21:34;;;;;;;1.00;1.00;;;8.40;99.90;;;;;;5058331;28;20101;-81
2021/05/21 02:24:05;;;;;;;1.65;1.00;;;8.50;99.90;;;;;;5015781;28;20037;-81
2021/05/21 02:26:31;;;;;;;1.40;0.95;;;8.50;99.90;;;;;;5032287;28;20037;-81
2021/05/21 02:28:57;;;;;;;1.38;1.10;;;8.60;99.90;;;;;;5033357;28;20481;-79
2021/05/21 02:31:23;;;;;;;1.48;0.98;;;8.60;99.90;;;;;;5045855;28;20029;-80
2021/05/21 02:33:48;;;;;;;1.92;1.48;;;8.70;99.90;;;;;;5035190;28;20033;-80
2021/05/21 02:36:14;;;;;;;1.30;1.20;;;8.70;99.90;;;;;;5032937;28;20064;-80
2021/05/21 02:38:40;;;;;;;2.40;1.20;;;8.70;99.90;;;;;;5034460;28;20168;-80
2021/05/21 02:41:06;;;;;;;1.25;0.98;;;8.70;99.90;;;;;;5035128;28;20029;-80
2021/05/21 02:43:31;;;;;;;1.88;1.35;;;8.70;99.90;;;;;;5032008;28;20059;-80
2021/05/21 02:45:57;;;;;;;1.85;1.27;;;8.70;99.90;;;;;;5033885;28;20039;-81
2021/05/21 02:48:23;;;;;;;1.17;1.02;;;8.70;99.90;;;;;;5015729;28;20056;-80
2021/05/21 02:50:48;;;;;;;1.73;1.38;;;8.70;99.90;;;;;;5034994;28;20032;-80
2021/05/21 02:53:14;;;;;;;1.48;1.38;;;8.80;99.90;;;;;;5033694;28;20100;-80
2021/05/21 02:55:40;;;;;;;1.42;1.33;;;8.70;99.90;;;;;;5032995;28;20452;-80
2021/05/21 02:58:05;;;;;;;1.13;1.02;;;8.70;99.90;;;;;;5034795;28;20061;-80
2021/05/21 03:00:31;;;;;;;1.27;1.08;;;8.70;99.90;;;;;;5034844;28;20033;-80
2021/05/21 03:02:57;;;;;;;1.30;1.13;;;8.80;99.90;;;;;;5032555;28;20021;-79
2021/05/21 03:05:22;;;;;;;1.38;1.27;;;8.80;99.90;;;;;;5032705;28;20044;-80
2021/05/21 03:07:54;;;;;;;1.15;1.00;;;8.90;99.90;;;;;;5036756;28;20033;-80
2021/05/21 03:10:24;;;;;;;1.23;1.13;;;8.90;99.90;;;;;;5038895;28;20034;-80
2021/05/21 03:12:50;;;;;;;1.38;1.20;;;8.90;99.90;;;;;;5037439;28;20112;-81
2021/05/21 03:15:16;;;;;;;1.25;1.15;;;8.90;99.90;;;;;;5037314;28;20017;-80
2021/05/21 03:17:48;;;;;;;1.40;1.30;;;8.90;99.90;;;;;;5038462;28;20029;-81
2021/05/21 03:20:15;;;;;;;2.05;1.60;;;8.90;99.90;;;;;;5036922;28;20033;-81
2021/05/21 03:22:41;;;;;;;1.20;1.10;;;8.90;99.90;;;;;;5035881;28;20044;-80
2021/05/21 03:25:08;;;;;;;0.90;0.90;;;8.90;99.90;;;;;;5034682;28;20033;-79
2021/05/21 03:27:34;;;;;;;1.17;1.05;;;8.90;99.90;;;;;;5035622;28;20112;-80
2021/05/21 03:30:00;;;;;;;0.90;0.90;;;9.00;99.90;;;;;;5020224;28;20414;-80
2021/05/21 03:32:26;;;;;;;1.55;1.17;;;9.00;99.90;;;;;;5017822;28;20030;-80
2021/05/21 03:34:52;;;;;;;1.38;1.27;;;9.10;99.90;;;;;;5017312;28;20060;-80
2021/05/21 03:37:18;;;;;;;2.10;1.20;;;9.10;99.90;;;;;;5037926;28;20101;-81
2021/05/21 03:39:43;;;;;;;1.98;1.10;;;9.10;99.90;;;;;;5012767;28;20038;-81
2021/05/21 03:42:09;;;;;;;1.13;1.02;;;9.10;99.90;;;;;;5017378;28;20026;-81
2021/05/21 03:44:38;;;;;;;0.90;0.90;;;9.10;99.90;;;;;;5033633;28;20037;-81
2021/05/21 03:47:04;;;;;;;1.35;0.82;;;9.10;99.90;;;;;;5035214;28;20026;-80
2021/05/21 03:49:30;;;;;;;1.27;1.17;;;9.10;99.90;;;;;;5036389;28;20078;-81
2021/05/21 03:51:57;;;;;;;1.88;1.23;;;9.20;99.90;;;;;;5036075;28;20447;-80
2021/05/21 03:54:23;;;;;;;1.73;1.08;;;9.20;99.90;;;;;;5034445;28;20040;-81
2021/05/21 03:56:50;;;;;;;1.10;1.00;;;9.20;99.90;;;;;;5035493;28;20044;-81
2021/05/21 03:59:17;;;;;;;1.38;0.90;;;9.30;99.90;;;;;;5036160;28;20037;-80
2021/05/21 04:01:45;;;;;;;0.95;0.90;;;9.20;99.90;;;;;;5038000;28;20454;-80
2021/05/21 04:04:10;;;;;;;0.93;0.90;;;9.30;99.90;;;;;;5034637;28;20033;-80
2021/05/21 04:06:36;;;;;;;1.10;0.80;;;9.20;99.90;;;;;;5034438;28;20089;-81
2021/05/21 04:09:06;;;;;;;1.27;1.17;;;9.30;99.90;;;;;;5037516;28;20022;-80
2021/05/21 04:11:36;;;;;;;1.02;0.93;;;9.40;99.90;;;;;;5035716;28;20045;-81
2021/05/21 04:14:03;;;;;;;1.33;0.75;;;9.40;99.90;;;;;;5031024;28;20037;-81
2021/05/21 04:16:29;;;;;;;0.80;0.70;;;9.40;99.90;;;;;;5031147;28;20097;-79
2021/05/21 04:18:55;;;;;;;0.98;0.93;;;9.50;99.90;;;;;;5015873;28;20065;-80
2021/05/21 04:21:21;;;;;;;1.00;0.95;;;9.60;99.90;;;;;;5035373;28;20037;-80
2021/05/21 04:23:47;;;;;;;1.17;0.90;;;9.60;99.90;;;;;;5034421;28;20029;-80
2021/05/21 04:26:14;;;;;;;1.02;0.88;;;9.60;99.90;;;;;;5034852;28;20539;-79
2021/05/21 04:28:40;;;;;;;0.80;0.80;;;9.70;99.90;;;;;;5027812;28;20033;-79
2021/05/21 04:31:06;;;;;;;1.77;0.85;;;9.70;99.90;;;;;;5037059;28;20113;-81
2021/05/21 04:33:32;;;;;;;2.50;1.00;;;9.80;99.90;;;;;;5032866;28;20028;-80
2021/05/21 04:35:57;;;;;;;2.30;1.13;;;9.80;99.90;;;;;;5014878;28;20044;-80
2021/05/21 04:38:23;;;;;;;1.10;0.75;;;9.90;99.90;;;;;;5017620;28;20486;-79
2021/05/21 04:40:49;;;;;;;0.80;0.80;;;9.90;99.90;;;;;;5037758;28;20041;-80
2021/05/21 04:43:14;;;;;;;1.02;1.00;;;10.00;99.90;;;;;;5034127;28;20370;-80
2021/05/21 04:45:42;;;;;;;1.70;0.93;;;10.00;99.90;;;;;;5039093;28;20436;-81
2021/05/21 04:48:08;;;;;;;1.65;1.00;;;10.00;99.90;;;;;;5042580;28;20022;-79
2021/05/21 04:50:34;;;;;;;1.10;0.93;;;10.10;99.90;;;;;;5013141;28;20561;-80
2021/05/21 04:53:00;;;;;;;1.05;0.90;;;10.10;99.90;;;;;;5032822;28;20041;-80
2021/05/21 04:55:25;;;;;;;1.52;0.80;;;10.20;99.90;;;;;;5039607;28;20811;-81
2021/05/21 04:57:51;;;;;;;1.25;0.77;;;10.20;99.90;;;;;;5035924;28;20108;-80
2021/05/21 05:00:17;;;;;;;0.63;0.63;;;10.30;99.90;;;;;;5032501;28;20026;-79
2021/05/21 05:02:43;;;;;;;0.85;0.75;;;10.40;99.90;;;;;;5031219;28;20065;-80
2021/05/21 05:05:10;;;;;;;0.70;0.70;;;10.40;99.90;;;;;;5008849;28;20037;-79
2021/05/21 05:07:35;;;;;;;1.23;0.80;;;10.50;99.90;;;;;;5012362;28;20076;-79
2021/05/21 05:10:01;;;;;;;0.60;0.60;;;10.60;99.90;;;;;;5030025;28;20498;-80
2021/05/21 05:12:27;;;;;;;0.90;0.65;;;10.70;99.90;;;;;;5029419;28;20042;-80
2021/05/21 05:14:52;;;;;;;0.80;0.80;;;10.80;99.90;;;;;;5030583;28;20033;-80
2021/05/21 05:17:18;;;;;;;0.88;0.77;;;10.90;99.90;;;;;;5027807;28;20021;-80
2021/05/21 05:19:44;;;;;;;0.85;0.80;;;11.00;99.90;;;;;;5031964;28;20037;-79
2021/05/21 05:22:11;;;;;;;2.17;0.90;;;11.10;99.90;;;;;;5014423;28;20489;-80
2021/05/21 05:24:37;;;;;;;0.77;0.63;;;11.20;99.90;;;;;;5021845;28;20034;-79
2021/05/21 05:27:03;;;;;;;1.00;0.70;;;11.30;99.90;;;;;;5028489;28;20040;-80
2021/05/21 05:29:33;;;;;;;0.52;0.50;;;11.40;99.90;;;;;;5033255;28;20083;-80
2021/05/21 05:32:01;;;;;;;0.68;0.60;;;11.50;99.90;;;;;;5031029;28;20060;-80
2021/05/21 05:34:26;;;;;;;1.42;0.80;;;11.60;99.90;;;;;;5031040;28;20109;-80
2021/05/21 05:36:54;;;;;;;0.40;0.40;;;11.70;99.90;;;;;;5033101;28;20049;-81
2021/05/21 05:39:20;;;;;;;1.80;0.70;;;11.70;99.90;;;;;;5032791;28;20469;-79
2021/05/21 05:41:49;;;;;;;0.73;0.70;;;11.80;99.90;;;;;;5015983;28;20033;-79
2021/05/21 05:44:17;;;;;;;0.60;0.50;;;11.80;99.90;;;;;;5031781;28;20695;-81
2021/05/21 05:46:43;;;;;;;0.50;0.50;;;11.70;99.90;;;;;;5034576;28;20501;-79
2021/05/21 05:49:09;;;;;;;0.88;0.70;;;11.80;99.90;;;;;;5024124;28;20056;-80
2021/05/21 05:51:34;;;;;;;1.15;0.70;;;11.90;99.90;;;;;;5015737;28;20029;-80
2021/05/21 05:54:00;;;;;;;0.80;0.60;;;12.00;99.90;;;;;;5029941;28;20025;-80
2021/05/21 05:56:26;;;;;;;0.93;0.50;;;12.10;99.90;;;;;;5032469;28;20045;-80
2021/05/21 05:58:52;;;;;;;1.38;0.63;;;12.50;99.90;;;;;;5039238;28;20021;-80
2021/05/21 06:01:18;;;;;;;0.50;0.50;;;12.90;99.90;;;;;;5019576;28;20041;-80
2021/05/21 06:03:43;;;;;;;0.98;0.60;;;13.30;99.90;;;;;;5014752;28;20039;-81
2021/05/21 06:06:09;;;;;;;0.50;0.50;;;13.60;99.90;;;;;;5033303;28;20581;-80
2021/05/21 06:08:35;;;;;;;0.60;0.60;;;14.00;99.90;;;;;;5032792;28;20030;-81
2021/05/21 06:11:00;;;;;;;1.17;0.57;;;14.40;99.90;;;;;;5033950;28;20026;-81
2021/05/21 06:13:27;;;;;;;2.92;1.38;;;14.90;99.90;;;;;;5028381;28;20116;-82
2021/05/21 06:15:53;;;;;;;1.38;0.70;;;15.30;99.90;;;;;;5015320;28;20401;-81
2021/05/21 06:18:19;;;;;;;0.50;0.50;;;15.40;99.90;;;;;;5033479;28;20025;-80
2021/05/21 06:20:45;;;;;;;1.25;0.70;;;15.40;99.90;;;;;;5028196;28;20085;-81
2021/05/21 06:23:11;;;;;;;1.10;0.47;;;15.30;99.90;;;;;;5029181;28;20045;-80
2021/05/21 06:28:22;;;;;;;1.60;0.40;;;15.30;99.90;;;;;;5035473;28;20393;-81
2021/05/21 06:30:48;;;;;;;0.40;0.40;;;15.30;99.90;;;;;;5000380;28;20025;-80
2021/05/21 06:33:13;;;;;;;0.50;0.50;;;15.30;99.90;;;;;;5032170;28;20034;-80
2021/05/21 06:35:39;;;;;;;0.50;0.50;;;15.20;99.90;;;;;;5033066;28;20033;-81
2021/05/21 06:38:05;;;;;;;0.65;0.45;;;15.20;99.90;;;;;;5034426;28;20030;-81
2021/05/21 06:40:31;;;;;;;0.63;0.40;;;15.30;99.90;;;;;;5033439;28;20064;-81
2021/05/21 06:42:57;;;;;;;0.50;0.50;;;15.40;99.90;;;;;;5038144;28;20315;-80
2021/05/21 06:45:23;;;;;;;2.42;0.65;;;15.50;99.90;;;;;;5038102;28;20125;-81
2021/05/21 06:47:49;;;;;;;1.65;0.40;;;15.60;99.90;;;;;;5038037;28;20473;-81
2021/05/21 06:50:15;;;;;;;0.75;0.45;;;15.60;99.90;;;;;;5037759;28;20496;-80
2021/05/21 06:52:41;;;;;;;1.67;0.55;;;15.60;99.90;;;;;;5030599;28;20058;-81
2021/05/21 06:55:07;;;;;;;0.43;0.40;;;15.70;99.90;;;;;;5024019;28;20040;-81
2021/05/21 06:57:34;;;;;;;0.40;0.40;;;15.60;99.90;;;;;;5005421;28;20057;-80
2021/05/21 07:00:00;;;;;;;0.47;0.47;;;15.40;99.90;;;;;;5017117;28;20064;-81
2021/05/21 07:02:28;;;;;;;0.82;0.50;;;15.30;99.90;;;;;;5040242;28;20025;-81
2021/05/21 07:04:54;;;;;;;1.40;0.75;;;15.20;99.90;;;;;;5036109;28;20718;-81
2021/05/21 07:07:20;;;;;;;1.10;0.60;;;15.10;99.90;;;;;;5038141;28;20029;-81
2021/05/21 07:09:46;;;;;;;0.60;0.30;;;15.00;99.90;;;;;;5037967;28;20037;-80
2021/05/21 07:12:12;;;;;;;0.60;0.50;;;15.00;99.90;;;;;;5037378;28;20048;-81
2021/05/21 07:14:37;;;;;;;0.35;0.30;;;15.10;99.90;;;;;;5039351;28;20040;-80
2021/05/21 07:17:03;;;;;;;0.30;0.30;;;15.20;99.90;;;;;;5020234;28;20048;-81
2021/05/21 07:19:30;;;;;;;0.50;0.50;;;15.30;99.90;;;;;;5054779;28;20479;-80
2021/05/21 07:21:55;;;;;;;0.30;0.30;;;15.40;99.90;;;;;;5015975;28;20095;-80
2021/05/21 07:24:21;;;;;;;1.55;0.40;;;15.50;99.90;;;;;;5011734;28;20479;-79
2021/05/21 07:26:47;;;;;;;1.30;0.55;;;15.60;99.90;;;;;;5013538;28;20041;-79
2021/05/21 07:29:13;;;;;;;1.75;0.40;;;15.60;99.90;;;;;;5032609;28;20660;-81
2021/05/21 07:31:38;;;;;;;0.77;0.47;;;15.70;99.90;;;;;;5020704;28;20033;-80
2021/05/21 07:34:04;;;;;;;1.10;0.50;;;15.70;99.90;;;;;;5013137;28;20037;-82
2021/05/21 07:36:32;;;;;;;0.47;0.30;;;15.70;99.90;;;;;;5034201;28;20173;-81
2021/05/21 07:39:04;;;;;;;1.33;0.50;;;15.70;99.90;;;;;;5019102;28;20037;-80
2021/05/21 07:41:30;;;;;;;1.77;0.50;;;15.70;99.90;;;;;;5031494;28;20044;-79
2021/05/21 07:43:57;;;;;;;0.32;0.32;;;15.70;99.90;;;;;;5034201;28;20034;-80
2021/05/21 07:46:24;;;;;;;1.33;0.50;;;15.80;99.90;;;;;;4999982;28;20034;-81
2021/05/21 07:48:50;;;;;;;0.47;0.43;;;15.80;99.90;;;;;;5038014;28;20113;-81
2021/05/21 07:51:17;;;;;;;1.23;0.50;;;15.80;99.90;;;;;;5031231;28;20029;-80
2021/05/21 07:53:43;;;;;;;0.30;0.30;;;16.00;99.90;;;;;;5031063;28;20028;-80
2021/05/21 07:56:08;;;;;;;1.00;0.32;;;16.10;99.90;;;;;;5016267;28;20120;-80
2021/05/21 07:58:34;;;;;;;0.73;0.38;;;16.00;99.90;;;;;;5014410;28;20029;-80
2021/05/21 08:01:00;;;;;;;1.95;0.60;;;16.10;99.90;;;;;;5017648;28;20051;-80
2021/05/21 08:03:26;;;;;;;0.57;0.35;;;16.20;99.90;;;;;;5031776;28;20037;-79
2021/05/21 08:05:52;;;;;;;0.30;0.30;;;16.20;99.90;;;;;;5022959;28;20446;-80
2021/05/21 08:08:21;;;;;;;1.48;0.63;;;16.30;99.90;;;;;;5017552;28;20029;-81
2021/05/21 08:10:48;;;;;;;0.80;0.45;;;16.30;99.90;;;;;;5023478;28;20482;-80
2021/05/21 08:13:14;;;;;;;0.30;0.20;;;16.30;99.90;;;;;;5033122;28;20034;-80
2021/05/21 08:15:40;;;;;;;1.48;0.52;;;16.40;99.90;;;;;;5028611;28;20040;-77
2021/05/21 08:18:06;;;;;;;0.28;0.28;;;16.40;99.90;;;;;;5011502;28;20723;-78
2021/05/21 08:20:31;;;;;;;0.73;0.73;;;16.50;99.90;;;;;;5029848;28;20136;-79
2021/05/21 08:22:57;;;;;;;0.65;0.30;;;16.60;99.90;;;;;;5005367;28;20548;-79
2021/05/21 08:25:23;;;;;;;0.20;0.20;;;16.70;99.90;;;;;;5012498;28;20037;-80
2021/05/21 08:27:49;;;;;;;0.77;0.40;;;16.80;99.90;;;;;;5011003;28;20033;-78
2021/05/21 08:30:15;;;;;;;1.15;0.50;;;16.90;99.90;;;;;;5029932;28;20030;-79
2021/05/21 08:32:41;;;;;;;0.57;0.45;;;16.90;99.90;;;;;;5031069;28;20594;-80
2021/05/21 08:35:07;;;;;;;1.45;0.32;;;17.00;99.90;;;;;;5030760;28;20029;-79
2021/05/21 08:37:33;;;;;;;2.58;0.43;;;17.00;99.90;;;;;;5011642;28;20486;-78
2021/05/21 08:39:59;;;;;;;0.40;0.40;;;17.00;99.90;;;;;;5031017;28;20104;-79
2021/05/21 08:42:30;;;;;;;0.63;0.50;;;17.00;99.90;;;;;;5011826;28;20030;-78
2021/05/21 08:44:56;;;;;;;2.72;0.40;;;17.00;99.90;;;;;;5029162;28;20026;-79
2021/05/21 08:47:22;;;;;;;0.40;0.28;;;17.00;99.90;;;;;;5029823;28;20080;-79
2021/05/21 08:49:49;;;;;;;0.75;0.40;;;17.00;99.90;;;;;;5012005;28;20036;-80
2021/05/21 08:52:16;;;;;;;0.47;0.35;;;17.10;99.90;;;;;;5011782;28;20041;-78
2021/05/21 08:54:45;;;;;;;1.50;0.40;;;17.10;99.90;;;;;;5030975;28;20041;-79
2021/05/21 08:57:11;;;;;;;6.43;0.55;;;17.10;99.90;;;;;;5027907;28;20068;-79
2021/05/21 08:59:37;;;;;;;0.30;0.30;;;17.10;99.90;;;;;;4975940;28;20125;-78
2021/05/21 09:02:05;;;;;;;0.43;0.43;;;17.20;99.90;;;;;;4996561;28;20037;-79
2021/05/21 09:04:49;;;;;;;1.67;0.20;;;17.20;99.90;;;;;;5009477;28;20037;-77
2021/05/21 09:07:25;;;;;;;0.60;0.30;;;17.30;99.90;;;;;;5014486;28;20096;-78
2021/05/21 09:09:52;;;;;;;0.60;0.40;;;17.20;99.90;;;;;;5030310;28;20079;-79
2021/05/21 09:12:19;;;;;;;1.20;0.40;;;17.20;99.90;;;;;;5008175;28;20084;-79
2021/05/21 09:15:18;;;;;;;0.88;0.30;;;17.20;99.90;;;;;;5028852;28;20044;-78
2021/05/21 09:17:53;;;;;;;0.43;0.43;;;17.30;99.90;;;;;;5026282;28;20041;-79
2021/05/21 09:20:28;;;;;;;0.40;0.30;;;17.30;99.90;;;;;;5011743;28;20068;-79
2021/05/21 09:23:03;;;;;;;0.60;0.40;;;17.30;99.90;;;;;;5030077;28;20038;-78
2021/05/21 09:25:43;;;;;;;0.97;0.40;;;17.30;99.90;;;;;;5010407;28;20288;-79
2021/05/21 09:28:36;;;;;;;0.40;0.40;;;17.30;99.90;;;;;;5029694;28;20029;-80
2021/05/21 09:31:15;;;;;;;0.85;0.47;;;17.20;99.90;;;;;;5025127;28;20030;-81
2021/05/21 09:33:44;;;;;;;1.65;0.40;;;17.30;99.90;;;;;;5025900;28;20097;-79
2021/05/21 09:36:11;;;;;;;0.40;0.40;;;17.40;99.90;;;;;;5029393;28;20033;-79
2021/05/21 09:38:53;;;;;;;0.82;0.30;;;17.40;99.90;;;;;;5028835;28;20057;-80
2021/05/21 09:41:19;;;;;;;0.77;0.38;;;17.40;99.90;;;;;;5027321;28;20375;-79
2021/05/21 09:44:11;;;;;;;0.68;0.30;;;17.40;99.90;;;;;;5011715;28;20039;-81
2021/05/21 09:46:39;;;;;;;2.10;0.45;;;17.50;99.90;;;;;;5005406;28;20037;-80
2021/05/21 09:49:24;;;;;;;1.67;0.50;;;17.50;99.60;;;;;;5027940;28;20040;-81
2021/05/21 09:51:51;;;;;;;0.60;0.30;;;17.40;98.00;;;;;;5039851;28;20048;-79
2021/05/21 09:54:17;;;;;;;0.35;0.20;;;17.40;99.90;;;;;;5029364;28;20028;-80
2021/05/21 09:57:01;;;;;;;2.13;0.30;;;17.40;99.20;;;;;;5028367;28;20037;-81
2021/05/21 09:59:41;;;;;;;2.03;0.43;;;17.30;99.20;;;;;;5032469;28;20042;-79
2021/05/21 10:02:28;;;;;;;0.88;0.28;;;17.30;99.70;;;;;;5012449;28;20359;-80
2021/05/21 10:04:54;;;;;;;3.17;0.50;;;17.20;98.60;;;;;;5028823;28;20048;-81
2021/05/21 10:07:21;;;;;;;0.20;0.20;;;17.30;98.30;;;;;;5028644;28;20049;-79
2021/05/21 10:09:48;;;;;;;0.70;0.43;;;17.30;97.70;;;;;;5013798;28;20029;-80
2021/05/21 10:12:14;;;;;;;0.40;0.38;;;17.30;98.40;;;;;;5019296;28;20064;-80
2021/05/21 10:14:41;;;;;;;0.57;0.43;;;17.30;98.40;;;;;;5033678;28;20041;-80
2021/05/21 10:17:09;;;;;;;0.50;0.43;;;17.20;97.00;;;;;;5028853;28;20064;-80
2021/05/21 10:19:38;;;;;;;0.73;0.43;;;17.20;99.30;;;;;;5029098;28;20034;-80
2021/05/21 10:22:08;;;;;;;0.40;0.30;;;17.20;98.30;;;;;;5030724;28;20382;-80
2021/05/21 10:24:36;;;;;;;0.47;0.30;;;17.00;96.70;;;;;;5026303;28;20041;-80
2021/05/21 10:27:08;;;;;;;0.25;0.25;;;17.00;98.30;;;;;;5025035;28;20033;-81
2021/05/21 10:29:35;;;;;;;1.67;0.40;;;17.00;95.10;;;;;;5031961;28;20232;-80
2021/05/21 10:32:12;;;;;;;0.65;0.35;;;17.00;98.80;;;;;;5030081;28;20537;-80
2021/05/21 10:34:49;;;;;;;1.98;0.35;;;17.00;97.40;;;;;;5032237;28;20029;-80
2021/05/21 10:37:36;;;;;;;1.98;0.50;;;17.00;99.50;;;;;;5052323;28;20401;-80
2021/05/21 10:40:27;;;;;;;0.40;0.40;;;17.00;97.40;;;;;;5028591;28;20084;-79
2021/05/21 10:43:24;;;;;;;0.73;0.47;;;17.00;95.00;;;;;;5025862;28;20184;-80
2021/05/21 10:46:17;;;;;;;0.20;0.20;;;16.90;96.80;;;;;;5016960;28;20029;-78
2021/05/21 10:48:59;;;;;;;0.38;0.20;;;16.90;96.50;;;;;;5026432;28;20080;-80
2021/05/21 10:51:28;;;;;;;0.60;0.22;;;16.80;95.90;;;;;;5023432;28;20087;-80
2021/05/21 10:54:34;;;;;;;0.57;0.52;;;16.70;97.00;;;;;;5022875;28;20056;-78
2021/05/21 10:57:09;;;;;;;0.63;0.35;;;16.60;97.30;;;;;;4993219;28;20041;-78
2021/05/21 11:00:00;;;;;;;1.08;0.80;;;16.60;94.60;;;;;;5027357;28;20458;-80
2021/05/21 11:02:43;;;;;;;0.90;0.40;;;16.60;96.20;;;;;;5031830;28;20034;-80
2021/05/21 11:05:48;;;;;;;0.40;0.40;;;16.70;96.00;;;;;;5028433;28;20088;-78
2021/05/21 11:08:13;;;;;;;0.50;0.50;;;16.70;96.80;;;;;;4946298;29;20031;-80
2021/05/21 11:10:43;;;;;;;0.30;0.30;;;16.70;95.90;;;;;;4941307;29;20039;-80
2021/05/21 11:13:10;;;;;;;0.70;0.30;;;16.70;96.50;;;;;;4981032;28;20065;-80
2021/05/21 11:15:41;;;;;;;0.75;0.40;;;16.80;97.00;;;;;;5028108;28;20658;-79
2021/05/21 11:18:16;;;;;;;0.75;0.30;;;16.90;97.90;;;;;;5011787;28;20112;-80
2021/05/21 11:21:06;;;;;;;1.90;0.43;;;16.90;96.50;;;;;;5030624;28;20033;-80
2021/05/21 11:23:39;;;;;;;2.05;0.57;;;17.00;95.40;;;;;;5024751;28;20037;-78
2021/05/21 11:26:25;;;;;;;0.75;0.30;;;17.00;96.40;;;;;;5026197;28;20029;-78
2021/05/21 11:28:57;;;;;;;1.98;0.40;;;16.90;95.20;;;;;;5031684;28;20580;-78
2021/05/21 11:31:26;;;;;;;2.50;0.60;;;16.80;95.90;;;;;;5033374;28;20021;-78
2021/05/21 11:33:52;;;;;;;3.30;0.50;;;16.90;97.00;;;;;;5017464;28;20113;-78
2021/05/21 11:36:20;;;;;;;0.73;0.40;;;16.90;98.00;;;;;;5026357;28;20041;-81
2021/05/21 11:38:46;;;;;;;1.15;0.43;;;16.90;96.20;;;;;;5030378;28;20037;-78
2021/05/21 11:41:12;;;;;;;1.42;0.50;;;17.00;96.50;;;;;;5033071;28;20036;-80
2021/05/21 11:43:44;;;;;;;0.30;0.30;;;17.00;96.70;;;;;;5029091;28;20086;-80
2021/05/21 11:46:18;;;;;;;0.63;0.40;;;17.00;96.40;;;;;;5027027;28;20465;-76
2021/05/21 11:48:46;;;;;;;0.70;0.50;;;17.00;97.40;;;;;;5031960;28;20025;-78
2021/05/21 11:51:15;;;;;;;1.10;0.40;;;17.00;99.40;;;;;;5028215;28;20580;-77
2021/05/21 11:53:49;;;;;;;1.52;0.40;;;17.00;95.80;;;;;;5033521;28;20049;-80
2021/05/21 11:56:27;;;;;;;1.20;0.53;;;16.90;95.70;;;;;;5034042;28;20035;-80
2021/05/21 11:58:57;;;;;;;0.52;0.40;;;16.80;95.10;;;;;;5033203;28;20121;-80
2021/05/21 12:01:23;;;;;;;1.00;0.60;;;16.80;94.70;;;;;;5029633;28;20117;-78
2021/05/21 12:03:49;;;;;;;5.53;0.52;;;16.80;95.90;;;;;;5027355;28;20121;-80
2021/05/21 12:06:15;;;;;;;1.38;0.40;;;16.70;95.50;;;;;;5026509;28;20026;-80
2021/05/21 12:08:48;;;;;;;1.63;0.40;;;16.60;97.60;;;;;;5030360;28;20029;-79
2021/05/21 12:11:15;;;;;;;2.95;0.45;;;16.50;98.20;;;;;;5014306;28;20034;-78
2021/05/21 12:13:42;;;;;;;0.38;0.32;;;16.50;98.90;;;;;;5017120;28;20041;-78
2021/05/21 12:16:13;;;;;;;0.52;0.52;;;16.50;97.50;;;;;;5034999;28;20057;-78
2021/05/21 12:18:39;;;;;;;2.55;0.70;;;16.50;95.70;;;;;;5037029;28;20029;-78
2021/05/21 12:21:05;;;;;;;0.77;0.50;;;16.50;97.70;;;;;;5032351;28;20041;-79
2021/05/21 12:23:38;;;;;;;0.50;0.50;;;16.50;97.00;;;;;;5031290;28;20049;-79
2021/05/21 12:26:06;;;;;;;1.85;0.30;;;16.70;98.80;;;;;;5034946;28;20029;-78
2021/05/21 12:28:33;;;;;;;1.92;0.45;;;16.70;98.40;;;;;;5033191;28;20029;-79
2021/05/21 12:31:03;;;;;;;1.60;0.55;;;16.90;98.20;;;;;;5039815;28;20469;-79
2021/05/21 12:33:34;;;;;;;1.83;0.52;;;17.10;96.50;;;;;;5028149;28;20040;-78
2021/05/21 12:36:14;;;;;;;1.58;0.40;;;17.20;96.60;;;;;;5029646;28;20051;-80
2021/05/21 12:38:48;;;;;;;0.38;0.35;;;17.30;97.00;;;;;;5032342;28;20029;-79
2021/05/21 12:41:15;;;;;;;0.65;0.60;;;17.30;97.80;;;;;;5031743;28;20099;-79
2021/05/21 12:43:41;;;;;;;1.05;0.52;;;17.30;97.50;;;;;;5008658;28;20032;-78
2021/05/21 12:46:08;;;;;;;1.48;0.50;;;17.30;97.60;;;;;;5014430;28;20033;-79
2021/05/21 12:48:54;;;;;;;4.70;0.85;;;17.40;95.90;;;;;;5014214;28;20172;-80
2021/05/21 12:51:27;;;;;;;0.52;0.30;;;17.40;94.60;;;;;;5016082;28;20392;-79
2021/05/21 12:53:54;;;;;;;0.93;0.50;;;17.40;97.60;;;;;;5034897;28;20033;-81
2021/05/21 12:56:34;;;;;;;0.80;0.73;;;17.50;98.90;;;;;;5030531;28;20025;-80
2021/05/21 12:59:18;;;;;;;2.70;0.70;;;17.50;97.40;;;;;;5026043;28;20033;-80
2021/05/21 13:01:44;;;;;;;1.60;0.50;;;17.70;95.00;;;;;;5027749;28;20091;-80